Flight Track Log - Related Links

Times and Time Zones

All times are in EDT time to prevent confusion due to time zone crossing. See the SWA1181 flight status page for this flight to view local times or setup timezone preferences in your user account.

Time Position Orientation Groundspeed Altitude Reporting Facility
EDT Latitude Longitude Course Direction KTS MPH feet Rate Location/Type
Sat 12:59:57 PM 35.0667 -89.9833 22° Northeast 176 203 1,000  Level KMEM
Sat 01:00:45 PM 35.1000 -89.9667 22° Northeast 199 229 2,500 1,889 Climbing KMEM
Sat 01:01:45 PM 35.1333 -89.9000 59° Northeast 269 310 4,400 1,895 Climbing KMEM
Sat 01:02:20 PM 35.1400 -89.8633 77° East 263 303 5,500 2,536 Climbing Memphis Center
Sat 01:03:22 PM 35.1567 -89.7419 80° East 297 342 8,500 2,613 Climbing Memphis Center
Sat 01:04:24 PM 35.1717 -89.6314 81° East 318 366 10,900 2,419 Climbing Memphis Center
Sat 01:05:26 PM 35.1881 -89.5039 81° East 367 422 13,500 2,758 Climbing Memphis Center
Sat 01:06:28 PM 35.2056 -89.3708 81° East 389 448 16,600 2,806 Climbing Memphis Center
Sat 01:07:30 PM 35.2236 -89.2322 81° East 404 465 19,300 2,565 Climbing Memphis Center
Sat 01:08:32 PM 35.2508 -89.0900 77° East 426 490 21,900 2,341 Climbing Memphis Center
Sat 01:09:33 PM 35.3050 -88.9506 65° Northeast 449 517 24,100 2,488 Climbing Memphis Center
Sat 01:10:35 PM 35.3703 -88.7803 65° Northeast 457 526 27,000 2,468 Climbing Memphis Center
Sat 01:11:37 PM 35.4197 -88.6461 66° East 461 531 29,200 1,742 Climbing Memphis Center
Sat 01:12:39 PM 35.4742 -88.5036 65° Northeast 461 531 30,600 1,306 Climbing Memphis Center
Sat 01:13:41 PM 35.5297 -88.3544 65° Northeast 473 544 31,900 1,839 Climbing Memphis Center
Sat 01:14:43 PM 35.5983 -88.1725 65° Northeast 485 558 34,400 1,839 Climbing Memphis Center
Sat 01:15:45 PM 35.6456 -88.0472 65° Northeast 477 549 35,700 1,317 Climbing Memphis Center
Sat 01:16:46 PM 35.7106 -87.8708 66° East 477 549 37,100 1,268 Climbing Memphis Center
Sat 01:17:48 PM 35.7656 -87.7203 66° East 477 549 38,300 919 Climbing Memphis Center
Sat 01:18:50 PM 35.8208 -87.5692 66° East 478 550 39,000 339 Climbing Memphis Center
Sat 01:19:52 PM 35.8769 -87.4175 65° Northeast 479 551 39,000  Level Memphis Center
Sat 01:20:53 PM 35.9311 -87.2656 66° East 479 551 39,000  Level Memphis Center
Sat 01:21:55 PM 35.9850 -87.1142 66° East 479 551 39,000  Level Memphis Center
Sat 01:22:57 PM 36.0394 -86.9628 66° East 479 551 39,000  Level Memphis Center
Sat 01:23:59 PM 36.0992 -86.7872 67° East 479 551 39,000  Level Memphis Center
Sat 01:25:00 PM 36.1519 -86.6358 67° East 479 551 39,000  Level Memphis Center
Sat 01:26:02 PM 36.2025 -86.4817 68° East 482 555 39,000  Level Memphis Center
Sat 01:27:04 PM 36.2517 -86.3264 69° East 482 555 39,000  Level Memphis Center
Sat 01:28:06 PM 36.3019 -86.1706 68° East 483 556 39,000  Level Memphis Center
Sat 01:29:07 PM 36.3522 -86.0147 68° East 483 556 39,000  Level Memphis Center
Sat 01:30:09 PM 36.4033 -85.8583 68° East 484 557 39,000  Level Memphis Center
Sat 01:31:11 PM 36.4553 -85.6964 68° East 484 557 39,000  Level Memphis Center
Sat 01:31:52 PM 36.4933 -85.5714 69° East 483 556 39,000  Level Indianapolis Center
Sat 01:32:55 PM 36.5411 -85.4142 69° East 483 556 39,000  Level Indianapolis Center
Sat 01:33:55 PM 36.5908 -85.2592 68° East 483 556 39,000  Level Indianapolis Center
Sat 01:34:57 PM 36.6378 -85.1050 69° East 479 551 39,000  Level Indianapolis Center
Sat 01:35:58 PM 36.6842 -84.9542 69° East 472 543 39,000  Level Indianapolis Center
Sat 01:37:00 PM 36.7306 -84.8022 69° East 469 540 39,000  Level Indianapolis Center
Sat 01:38:01 PM 36.7769 -84.6497 69° East 469 540 39,000  Level Indianapolis Center
Sat 01:39:03 PM 36.8247 -84.4944 69° East 468 539 39,000  Level Indianapolis Center
Sat 01:40:05 PM 36.8692 -84.3419 70° East 468 539 39,000  Level Indianapolis Center
Sat 01:41:06 PM 36.9219 -84.1656 69° East 467 537 39,000  Level Indianapolis Center
Sat 01:42:08 PM 36.9678 -84.0117 70° East 467 537 39,000  Level Indianapolis Center
Sat 01:43:09 PM 37.0136 -83.8572 70° East 468 539 39,000  Level Indianapolis Center
Sat 01:44:11 PM 37.0594 -83.7036 69° East 468 539 39,000  Level Indianapolis Center
Sat 01:45:12 PM 37.1044 -83.5481 70° East 469 540 39,000  Level Indianapolis Center
Sat 01:46:14 PM 37.1503 -83.3936 70° East 469 540 39,000  Level Indianapolis Center
Sat 01:47:15 PM 37.1947 -83.2392 70° East 469 540 39,000  Level Indianapolis Center
Sat 01:48:17 PM 37.2394 -83.0858 70° East 467 537 39,000  Level Indianapolis Center
Sat 01:49:18 PM 37.2828 -82.9328 70° East 464 534 39,000  Level Indianapolis Center
Sat 01:50:20 PM 37.3258 -82.7797 70° East 464 534 39,000  Level Indianapolis Center
Sat 01:51:21 PM 37.3683 -82.6289 70° East 460 529 39,000  Level Indianapolis Center
Sat 01:52:23 PM 37.4186 -82.4528 70° East 459 528 39,000  Level Indianapolis Center
Sat 01:53:24 PM 37.4600 -82.3014 71° East 459 528 39,000  Level Indianapolis Center
Sat 01:54:26 PM 37.5019 -82.1494 71° East 459 528 39,000  Level Indianapolis Center
Sat 01:55:27 PM 37.5433 -82.0000 71° East 457 526 39,000  Level Indianapolis Center
Sat 01:56:28 PM 37.5844 -81.8494 71° East 456 525 39,000  Level Indianapolis Center
Sat 01:57:30 PM 37.6261 -81.6994 71° East 455 524 39,000  Level Indianapolis Center
Sat 01:58:31 PM 37.6661 -81.5492 71° East 454 522 39,000  Level Indianapolis Center
Sat 01:59:33 PM 37.7050 -81.4064 71° East 451 519 39,000  Level Indianapolis Center
Sat 02:00:34 PM 37.7525 -81.2297 71° East 449 517 39,000 -197 Level Indianapolis Center
Sat 02:01:35 PM 37.7917 -81.0822 71° East 447 514 38,600 -683 Descending Indianapolis Center
Sat 02:02:37 PM 37.8336 -80.9353 70° East 447 514 37,600 -927 Descending Indianapolis Center
Sat 02:03:38 PM 37.8761 -80.7839 70° East 452 520 36,700 -927 Descending Indianapolis Center
Sat 02:04:40 PM 37.9189 -80.6281 71° East 453 521 35,700 -829 Descending Indianapolis Center
Sat 02:05:41 PM 37.9597 -80.4833 70° East 453 521 35,000 -738 Descending Indianapolis Center
Sat 02:06:42 PM 38.0003 -80.3319 71° East 453 521 34,200 -878 Descending Indianapolis Center
Sat 02:07:44 PM 38.0403 -80.1808 71° East 453 521 33,200 -1,073 Descending Indianapolis Center
Sat 02:08:45 PM 38.0897 -80.0044 70° East 447 514 32,000 -1,073 Descending Indianapolis Center
Sat 02:09:47 PM 38.1281 -79.8581 72° East 442 509 31,000 -976 Descending Indianapolis Center
Sat 02:10:48 PM 38.1653 -79.7172 71° East 429 494 30,000 -984 Descending Indianapolis Center
Sat 02:11:49 PM 38.2031 -79.5736 71° East 428 493 29,000 -488 Descending Indianapolis Center
Sat 02:12:51 PM 38.2417 -79.4319 71° East 427 491 29,000  Level Indianapolis Center
Sat 02:14:09 PM 38.2908 -79.2400 72° East 422 486 29,000 -43 Level Washington Center
Sat 02:15:10 PM 38.3286 -79.0961 71° East 417 480 28,900 -694 Descending Washington Center
Sat 02:16:10 PM 38.3681 -78.9550 70° East 422 486 27,600 -942 Descending Washington Center
Sat 02:17:11 PM 38.3986 -78.8264 73° East 422 486 27,000 -298 Descending Washington Center
Sat 02:18:11 PM 38.4358 -78.6850 71° East 422 486 27,000  Level Washington Center
Sat 02:19:09 PM 38.4706 -78.5458 72° East 422 486 27,000 -101 Level Washington Center
Sat 02:20:10 PM 38.5053 -78.4067 72° East 422 486 26,800 -1,082 Descending Washington Center
Sat 02:21:11 PM 38.5417 -78.2700 71° East 417 480 24,800 -1,918 Descending Washington Center
Sat 02:22:12 PM 38.5739 -78.1358 73° East 404 465 22,900 -1,916 Descending Washington Center
Sat 02:23:10 PM 38.6056 -78.0067 73° East 391 450 21,000 -1,932 Descending Washington Center
Sat 02:24:10 PM 38.6353 -77.8828 73° East 378 435 19,100 -1,000 Descending Washington Center
Sat 02:25:10 PM 38.6481 -77.7500 83° East 365 420 19,000 -50 Descending Washington Center
Sat 02:26:11 PM 38.6564 -77.6256 85° East 365 420 19,000 -807 Level Washington Center
Sat 02:27:09 PM 38.6631 -77.4847 86° East 365 420 17,400 -1,395 Descending Washington Center
Sat 02:28:20 PM 38.6667 -77.3500 88° East 341 392 16,000 -1,182 Descending Potomac TRACON
Sat 02:29:26 PM 38.6833 -77.2167 81° East 319 367 14,700 -1,381 Descending Potomac TRACON
Sat 02:30:26 PM 38.6833 -77.1000 90° East 320 368 13,100 -1,388 Descending Potomac TRACON
Sat 02:31:27 PM 38.7000 -76.9833 80° East 310 357 11,900 -1,357 Descending Potomac TRACON
Sat 02:32:21 PM 38.7000 -76.8833 90° East 309 356 10,500 -1,211 Descending Potomac TRACON
Sat 02:33:21 PM 38.7000 -76.7833 90° East 282 325 9,600 -850 Descending Potomac TRACON
Sat 02:34:21 PM 38.7333 -76.7000 63° Northeast 266 306 8,800 -1,050 Descending Potomac TRACON
Sat 02:35:21 PM 38.7667 -76.6167 63° Northeast 258 297 7,500 -1,350 Descending Potomac TRACON
Sat 02:36:21 PM 38.8000 -76.5333 63° Northeast 257 296 6,100 -1,190 Descending Potomac TRACON
Sat 02:37:22 PM 38.8667 -76.5500 349° North 250 288 5,100 -843 Descending Potomac TRACON
Sat 02:38:22 PM 38.9333 -76.5667 349° North 254 292 4,400 -800 Descending Potomac TRACON
Sat 02:39:22 PM 39.0000 -76.5333 21° North 258 297 3,500 -1,150 Descending Potomac TRACON
Sat 02:40:22 PM 39.0667 -76.5000 21° North 261 300 2,100 -750 Descending Potomac TRACON
Sat 02:41:22 PM 39.1333 -76.5167 349° North 214 246 2,000 -200 Descending Potomac TRACON
Sat 02:42:22 PM 39.1667 -76.5500 322° Northwest 156 180 1,700 -550 Descending Potomac TRACON
Sat 02:43:22 PM 39.1667 -76.6000 270° West 149 171 900 -800 Descending Potomac TRACON
Sat 02:45:00 PM 39.1667 -76.6667 339° North  Level FlightAware Approximate
Sat 02:52:00 PM 39.1754 -76.6683 339° North  Level Estimated
Sat 02:53:00 PM 39.1754 -76.6683 339° North  Level Estimated

Login

Don't have an account? Register now (free) for customized features, flight alerts, and more!